Terminal Aerodrome Forecast
Issued by NWS

Current Version | Previous Version | Graphics & Text | Print | Product List | Glossary On
Versions: 1 2 3 4 5 6 7 8 9 10 11 12 13 14 15 16 17 18
000
FTUS41 KRNK 211126 AAF
TAFLWB
TAF AMD
KLWB 211126Z 2111/2212 VRB03KT 3SM BR OVC045
     FM211500 29005KT P6SM BKN035
     FM211800 30006KT P6SM SCT040
     FM220000 31004KT P6SM SCT140
     FM220800 33006KT P6SM BKN040=

USA.gov is the U.S. government's official web portal to all federal, state and local government web resources and services.